Time;durP1;ratioP1;P1;durP2;ratioP2;P2;SDS_P1;SDS_P2;PMS_P1;PMS_P2;Temp;Humidity;BMP_temperature;BMP_pressure;BME280_temperature;BME280_humidity;BME280_pressure;Samples;Min_cycle;Max_cycle;Signal;HPM_P1;HPM_P2
2023/04/12 00:00:10;;;;;;;31.50;20.50;;;;;;;7.83;100.00;99856.16;110179;1235;57708;-69
2023/04/12 00:03:01;;;;;;;29.80;19.40;;;;;;;7.82;100.00;99853.67;110431;1235;75146;-69
2023/04/12 00:05:30;;;;;;;29.70;19.00;;;;;;;7.81;100.00;99847.65;110416;1235;72573;-69
2023/04/12 00:08:03;;;;;;;37.90;20.00;;;;;;;7.83;100.00;99847.84;110441;1235;60264;-69
2023/04/12 00:10:32;;;;;;;31.70;18.80;;;;;;;7.80;100.00;99847.04;110341;1235;64150;-68
2023/04/12 00:13:01;;;;;;;32.30;20.40;;;;;;;7.76;100.00;99845.45;110404;1237;58284;-68
2023/04/12 00:15:30;;;;;;;33.30;20.70;;;;;;;7.68;100.00;99839.95;110321;1235;61891;-69
2023/04/12 00:17:59;;;;;;;30.20;20.10;;;;;;;7.64;100.00;99832.58;110408;1235;73952;-69
2023/04/12 00:20:28;;;;;;;34.50;20.50;;;;;;;7.44;100.00;99827.34;110329;1235;71333;-69
2023/04/12 00:22:56;;;;;;;38.30;22.90;;;;;;;7.67;100.00;99827.69;110456;1235;71602;-69
2023/04/12 00:25:25;;;;;;;40.90;23.20;;;;;;;7.62;100.00;99824.05;110394;1235;62815;-69
2023/04/12 00:27:55;;;;;;;40.00;23.70;;;;;;;7.51;100.00;99823.00;110410;1238;57688;-69
2023/04/12 00:30:23;;;;;;;38.70;24.80;;;;;;;7.52;100.00;99816.30;110386;1235;57944;-69
2023/04/12 00:32:52;;;;;;;41.50;25.20;;;;;;;7.64;100.00;99815.11;110356;1235;63306;-68
2023/04/12 00:35:21;;;;;;;42.70;24.70;;;;;;;7.64;100.00;99814.63;110477;1237;60743;-69
2023/04/12 00:37:50;;;;;;;42.80;26.60;;;;;;;7.64;100.00;99815.47;110356;1235;69845;-68
2023/04/12 00:40:19;;;;;;;48.00;25.30;;;;;;;7.62;100.00;99815.73;110338;1235;74445;-69
2023/04/12 00:42:47;;;;;;;45.10;26.90;;;;;;;7.64;100.00;99820.31;110186;1239;62886;-68
2023/04/12 00:45:16;;;;;;;45.70;26.40;;;;;;;7.61;100.00;99818.08;110336;1236;57897;-69
2023/04/12 00:47:45;;;;;;;44.30;26.50;;;;;;;7.61;100.00;99814.79;110346;1235;63689;-69
2023/04/12 00:50:14;;;;;;;53.40;31.20;;;;;;;7.57;100.00;99820.62;110336;1235;72942;-68
2023/04/12 00:52:42;;;;;;;46.90;27.90;;;;;;;7.57;100.00;99819.77;110327;1235;70895;-68
2023/04/12 00:55:11;;;;;;;46.20;26.90;;;;;;;7.63;100.00;99815.87;110244;1236;72516;-68
2023/04/12 00:57:40;;;;;;;46.10;27.00;;;;;;;7.64;100.00;99818.53;110064;1239;58240;-69
2023/04/12 01:00:11;;;;;;;47.20;28.20;;;;;;;7.58;100.00;99817.13;110253;1235;57627;-69
2023/04/12 01:02:47;;;;;;;43.40;27.10;;;;;;;7.61;100.00;99816.22;109964;1235;74404;-69
2023/04/12 01:05:22;;;;;;;47.60;27.70;;;;;;;7.48;100.00;99815.25;110115;1235;72496;-67
2023/04/12 01:08:38;;;;;;;48.60;28.30;;;;;;;7.55;100.00;99815.25;110148;1235;60911;-69
2023/04/12 01:12:00;;;;;;;50.70;27.60;;;;;;;7.55;100.00;99813.00;110160;1235;72024;-68
2023/04/12 01:14:52;;;;;;;46.90;26.70;;;;;;;7.66;100.00;99812.48;110041;1238;58364;-68
2023/04/12 01:17:28;;;;;;;48.90;28.30;;;;;;;7.67;100.00;99811.73;110101;1235;59142;-69
2023/04/12 01:20:15;;;;;;;45.60;26.90;;;;;;;7.57;100.00;99809.74;110134;1235;74776;-68
2023/04/12 01:23:08;;;;;;;41.90;27.70;;;;;;;7.54;100.00;99807.02;110136;1238;61299;-68
2023/04/12 01:26:09;;;;;;;45.90;27.90;;;;;;;7.55;100.00;99798.97;110123;1238;68419;-69
2023/04/12 01:28:41;;;;;;;43.20;25.00;;;;;;;7.61;100.00;99796.77;109947;1235;74371;-68
2023/04/12 01:31:13;;;;;;;46.20;25.50;;;;;;;7.54;100.00;99797.36;109983;1238;63042;-69
2023/04/12 01:33:45;;;;;;;40.70;25.80;;;;;;;7.53;100.00;99792.41;110142;1238;58218;-68
2023/04/12 01:36:22;;;;;;;45.00;26.80;;;;;;;7.46;100.00;99793.04;110182;1238;62933;-68
2023/04/12 01:38:53;;;;;;;44.50;26.50;;;;;;;7.38;100.00;99791.05;110257;1237;61578;-68
2023/04/12 01:41:22;;;;;;;43.90;26.30;;;;;;;7.43;100.00;99790.83;110098;1235;70489;-68
2023/04/12 01:43:50;;;;;;;44.30;26.60;;;;;;;7.51;100.00;99790.80;110124;1235;73627;-68
2023/04/12 01:46:22;;;;;;;48.80;28.10;;;;;;;7.56;100.00;99785.93;110126;1238;58337;-68
2023/04/12 01:48:53;;;;;;;45.40;28.00;;;;;;;7.57;100.00;99789.42;110150;1235;61264;-68
2023/04/12 01:51:52;;;;;;;45.80;27.70;;;;;;;7.54;100.00;99786.02;110223;1235;74472;-68
2023/04/12 01:54:38;;;;;;;51.60;29.00;;;;;;;7.50;100.00;99786.17;110243;1238;61961;-68
2023/04/12 01:57:08;;;;;;;51.50;28.60;;;;;;;7.52;100.00;99782.04;110165;1235;69707;-69
2023/04/12 01:59:41;;;;;;;47.00;28.70;;;;;;;7.51;100.00;99782.64;109939;1242;63942;-68
2023/04/12 02:02:13;;;;;;;49.50;26.80;;;;;;;7.52;100.00;99775.98;110149;1237;62843;-68
2023/04/12 02:04:43;;;;;;;47.40;28.10;;;;;;;7.55;100.00;99777.36;110022;1239;57857;-68
2023/04/12 02:07:14;;;;;;;45.70;26.30;;;;;;;7.51;100.00;99776.42;110298;1238;71570;-68
2023/04/12 02:09:45;;;;;;;;;;;;;;;7.51;100.00;99773.11;110278;1236;61579;-68
2023/04/12 02:12:14;;;;;;;46.20;26.60;;;;;;;7.42;100.00;99774.15;110187;1235;69041;-69
2023/04/12 02:14:43;;;;;;;50.90;29.00;;;;;;;7.44;100.00;99769.96;110221;1235;73475;-69
2023/04/12 02:17:12;;;;;;;51.50;28.90;;;;;;;7.47;100.00;99765.46;110180;1237;58341;-69
2023/04/12 02:19:41;;;;;;;48.20;29.80;;;;;;;7.47;100.00;99766.46;110288;1238;58327;-69
2023/04/12 02:22:10;;;;;;;50.70;29.10;;;;;;;7.44;100.00;99761.85;110291;1238;63172;-69
2023/04/12 02:24:39;;;;;;;50.90;29.40;;;;;;;7.47;100.00;99760.25;110304;1235;61964;-69
2023/04/12 02:27:08;;;;;;;50.30;30.60;;;;;;;7.48;100.00;99759.33;110162;1235;70449;-69
2023/04/12 02:29:38;;;;;;;44.10;28.70;;;;;;;7.46;100.00;99760.34;110275;1238;73425;-69
2023/04/12 02:32:07;;;;;;;47.50;29.40;;;;;;;7.42;100.00;99759.55;110248;1235;62310;-70
2023/04/12 02:34:37;;;;;;;50.20;29.80;;;;;;;7.50;100.00;99755.67;110279;1235;61612;-70
2023/04/12 02:37:16;;;;;;;51.20;28.20;;;;;;;7.46;100.00;99759.95;110284;1238;65975;-68
2023/04/12 02:39:45;;;;;;;51.50;29.20;;;;;;;7.50;100.00;99759.48;110386;1237;60851;-68
2023/04/12 02:42:17;;;;;;;48.00;28.80;;;;;;;7.48;100.00;99758.93;110309;1238;59345;-69
2023/04/12 02:44:48;;;;;;;48.80;29.20;;;;;;;7.44;100.00;99757.30;110379;1236;72475;-68
2023/04/12 02:47:16;;;;;;;47.10;29.70;;;;;;;7.49;100.00;99749.36;110282;1238;63533;-68
2023/04/12 02:49:47;;;;;;;47.80;27.40;;;;;;;7.46;100.00;99748.74;110300;1239;57828;-68
2023/04/12 02:52:19;;;;;;;44.60;27.50;;;;;;;7.48;100.00;99743.86;110160;1235;74482;-70
2023/04/12 02:55:08;;;;;;;45.20;27.50;;;;;;;7.46;100.00;99741.41;110192;1239;60601;-68
2023/04/12 02:57:37;;;;;;;39.70;21.50;;;;;;;7.39;100.00;99746.64;110291;1239;59201;-69
2023/04/12 03:00:14;;;;;;;43.20;28.40;;;;;;;7.39;100.00;99746.09;110106;1235;72995;-69
2023/04/12 03:02:50;;;;;;;45.30;28.50;;;;;;;7.42;100.00;99739.61;110283;1238;57734;-69
2023/04/12 03:05:26;;;;;;;47.70;29.30;;;;;;;7.43;100.00;99742.85;110265;1238;57677;-70
2023/04/12 03:07:55;;;;;;;49.00;29.80;;;;;;;7.34;100.00;99746.68;110285;1235;74079;-70
2023/04/12 03:10:35;;;;;;;47.80;29.50;;;;;;;7.43;100.00;99739.03;110355;1233;72029;-69
2023/04/12 03:13:04;;;;;;;48.10;28.40;;;;;;;7.44;100.00;99737.75;110501;1238;60421;-69
2023/04/12 03:15:36;;;;;;;48.00;31.00;;;;;;;7.41;100.00;99738.30;110353;1235;71652;-69
2023/04/12 03:18:05;;;;;;;52.10;30.40;;;;;;;7.43;100.00;99738.21;110334;1238;58332;-69
2023/04/12 03:20:43;;;;;;;53.20;32.20;;;;;;;7.42;100.00;99737.77;110419;1237;61196;-69
2023/04/12 03:23:15;;;;;;;53.70;32.50;;;;;;;7.44;100.00;99739.86;110230;1235;74736;-69
2023/04/12 03:25:46;;;;;;;52.40;29.90;;;;;;;7.43;100.00;99740.39;110617;1235;70582;-69
2023/04/12 03:28:34;;;;;;;53.80;32.40;;;;;;;7.45;100.00;99736.15;110348;1235;70452;-67
2023/04/12 03:31:05;;;;;;;51.40;31.20;;;;;;;7.37;100.00;99729.08;110447;1238;73387;-68
2023/04/12 03:33:44;;;;;;;53.00;31.70;;;;;;;7.41;100.00;99727.25;110469;1235;58275;-68
2023/04/12 03:36:25;;;;;;;56.30;32.50;;;;;;;7.41;100.00;99729.36;110448;1235;59633;-69
2023/04/12 03:39:47;;;;;;;55.50;31.70;;;;;;;7.43;100.00;99737.34;110349;1235;73935;-69
2023/04/12 03:42:20;;;;;;;53.80;32.90;;;;;;;7.47;100.00;99735.46;110413;1235;72809;-69
2023/04/12 03:45:04;;;;;;;53.10;31.90;;;;;;;7.40;100.00;99739.25;110328;1238;70227;-69
2023/04/12 03:47:33;;;;;;;55.30;32.10;;;;;;;7.46;100.00;99741.30;110390;1235;63829;-70
2023/04/12 03:50:06;;;;;;;55.80;32.30;;;;;;;7.56;100.00;99742.39;110117;1238;61367;-69
2023/04/12 03:52:43;;;;;;;59.60;31.30;;;;;;;7.52;100.00;99748.27;110144;1235;61820;-68
2023/04/12 03:55:16;;;;;;;57.40;33.40;;;;;;;7.45;100.00;99753.26;110295;1239;64290;-67
2023/04/12 03:57:47;;;;;;;54.10;31.30;;;;;;;7.51;100.00;99747.44;110297;1235;60886;-69
2023/04/12 04:00:16;;;;;;;55.70;31.00;;;;;;;7.54;100.00;99748.08;110256;1235;59188;-71
2023/04/12 04:02:46;;;;;;;58.60;33.00;;;;;;;7.56;100.00;99751.25;110380;1235;63661;-70
2023/04/12 04:05:16;;;;;;;56.30;31.60;;;;;;;7.62;100.00;99748.40;110243;1235;63460;-70
2023/04/12 04:07:45;;;;;;;55.20;31.70;;;;;;;7.61;100.00;99747.27;110107;1235;60900;-69
2023/04/12 04:10:14;;;;;;;52.30;31.40;;;;;;;7.59;100.00;99752.60;110098;1235;63442;-69
2023/04/12 04:12:43;;;;;;;58.60;33.00;;;;;;;7.47;100.00;99751.91;110130;1235;61498;-70
2023/04/12 04:15:14;;;;;;;53.80;32.20;;;;;;;7.37;100.00;99752.31;110260;1235;59999;-69
2023/04/12 04:17:43;;;;;;;59.20;33.90;;;;;;;7.50;100.00;99756.57;110143;1235;73030;-70
2023/04/12 04:20:13;;;;;;;57.70;33.50;;;;;;;7.50;100.00;99753.23;110211;1238;58224;-70
2023/04/12 04:22:44;;;;;;;63.70;34.20;;;;;;;7.51;100.00;99749.57;110139;1235;58284;-69
2023/04/12 04:25:14;;;;;;;64.00;34.10;;;;;;;7.51;100.00;99758.55;110123;1235;73486;-70
2023/04/12 04:27:45;;;;;;;67.00;36.80;;;;;;;7.53;100.00;99760.81;110118;1235;72557;-70
2023/04/12 04:30:15;;;;;;;57.20;34.50;;;;;;;7.50;100.00;99768.15;110318;1235;59571;-69
2023/04/12 04:32:47;;;;;;;63.50;35.10;;;;;;;7.52;100.00;99773.37;110281;1235;73934;-70
2023/04/12 04:35:16;;;;;;;65.70;36.10;;;;;;;7.52;100.00;99775.29;110310;1235;63606;-70
2023/04/12 04:38:40;;;;;;;65.50;34.30;;;;;;;7.52;100.00;99779.11;110374;1235;58317;-69
2023/04/12 04:41:21;;;;;;;61.80;35.70;;;;;;;7.40;100.00;99777.39;110358;1234;63787;-69
2023/04/12 04:43:59;;;;;;;61.50;33.40;;;;;;;7.48;100.00;99776.63;110349;1235;61591;-70
2023/04/12 04:46:30;;;;;;;60.70;34.40;;;;;;;7.49;100.00;99778.77;110136;1235;67970;-72
2023/04/12 04:49:01;;;;;;;58.80;34.50;;;;;;;7.54;100.00;99780.30;110262;1235;73901;-70
2023/04/12 04:51:30;;;;;;;62.00;34.00;;;;;;;7.60;100.00;99781.25;110096;1239;62553;-70
2023/04/12 04:54:01;;;;;;;64.10;33.90;;;;;;;7.59;100.00;99778.56;110268;1235;60809;-68
2023/04/12 04:56:30;;;;;;;63.20;34.10;;;;;;;7.58;100.00;99780.73;110270;1235;66181;-68
2023/04/12 04:58:58;;;;;;;57.80;34.10;;;;;;;7.60;100.00;99781.08;110274;1235;71788;-69
2023/04/12 05:01:28;;;;;;;64.90;34.00;;;;;;;7.63;100.00;99782.22;110027;1235;70912;-70
2023/04/12 05:03:58;;;;;;;56.00;33.30;;;;;;;7.58;100.00;99781.08;110152;1235;62830;-69
2023/04/12 05:06:27;;;;;;;63.20;33.50;;;;;;;7.62;100.00;99779.39;110117;1238;63411;-70
2023/04/12 05:08:57;;;;;;;61.80;33.30;;;;;;;7.57;100.00;99779.58;110154;1235;57753;-72
2023/04/12 05:11:26;;;;;;;67.30;37.30;;;;;;;7.68;100.00;99781.05;109955;1235;74584;-70
2023/04/12 05:13:56;;;;;;;65.40;36.20;;;;;;;7.68;100.00;99785.15;110241;1235;72491;-69
2023/04/12 05:16:25;;;;;;;68.10;37.80;;;;;;;7.51;100.00;99788.72;110370;1235;70857;-69
2023/04/12 05:18:53;;;;;;;61.40;35.40;;;;;;;7.60;100.00;99784.73;110252;1235;72829;-71
2023/04/12 05:21:22;;;;;;;75.50;34.80;;;;;;;7.73;100.00;99779.98;110278;1238;63369;-68
2023/04/12 05:23:52;;;;;;;63.50;33.50;;;;;;;7.72;100.00;99781.79;110347;1235;60685;-70
2023/04/12 05:26:21;;;;;;;61.90;33.80;;;;;;;7.77;100.00;99776.86;110355;1235;75550;-69
2023/04/12 05:28:50;;;;;;;63.00;32.90;;;;;;;7.79;100.00;99780.02;110344;1235;61078;-69
2023/04/12 05:31:20;;;;;;;62.40;33.40;;;;;;;7.78;100.00;99774.73;110338;1235;60048;-70
2023/04/12 05:33:50;;;;;;;60.20;32.20;;;;;;;7.84;100.00;99771.35;110218;1235;73134;-69
2023/04/12 05:36:20;;;;;;;68.40;33.80;;;;;;;7.76;100.00;99768.58;110312;1236;62457;-68
2023/04/12 05:38:48;;;;;;;60.00;32.90;;;;;;;7.88;100.00;99766.02;110343;1234;60732;-68
2023/04/12 05:41:17;;;;;;;64.40;32.10;;;;;;;7.86;100.00;99766.30;110526;1235;64713;-70
2023/04/12 05:43:49;;;;;;;58.30;31.70;;;;;;;7.80;100.00;99765.21;110377;1235;72830;-71
2023/04/12 05:46:17;;;;;;;48.40;29.20;;;;;;;7.94;100.00;99768.46;110258;1235;70869;-72
2023/04/12 05:48:49;;;;;;;62.50;30.90;;;;;;;7.82;100.00;99765.89;110117;1235;73804;-72
2023/04/12 05:51:17;;;;;;;67.90;33.00;;;;;;;8.03;100.00;99770.91;110264;1238;61918;-72
2023/04/12 05:53:58;;;;;;;61.70;30.90;;;;;;;7.95;100.00;99772.02;110325;1235;57697;-72
2023/04/12 05:56:28;;;;;;;71.80;36.80;;;;;;;7.98;100.00;99774.38;110273;1235;74434;-71
2023/04/12 05:58:57;;;;;;;72.00;34.70;;;;;;;8.13;100.00;99772.20;110219;1234;72258;-72
2023/04/12 06:01:33;;;;;;;75.80;36.20;;;;;;;8.25;100.00;99771.33;110133;1235;59583;-71
2023/04/12 06:04:02;;;;;;;65.50;33.40;;;;;;;8.11;100.00;99770.08;110209;1235;62548;-71
2023/04/12 06:06:31;;;;;;;67.60;33.80;;;;;;;8.12;100.00;99772.11;110311;1236;57742;-71
2023/04/12 06:09:03;;;;;;;66.60;33.10;;;;;;;8.14;100.00;99768.61;110350;1235;61058;-72
2023/04/12 06:11:32;;;;;;;64.10;33.80;;;;;;;8.28;100.00;99765.13;110321;1235;63794;-72
2023/04/12 06:14:02;;;;;;;63.90;31.80;;;;;;;8.16;100.00;99767.98;110332;1235;71428;-70
2023/04/12 06:16:30;;;;;;;67.50;34.10;;;;;;;8.28;100.00;99762.90;110316;1234;70890;-71
2023/04/12 06:18:59;;;;;;;61.90;32.00;;;;;;;8.28;100.00;99762.36;110247;1235;74103;-72
2023/04/12 06:21:28;;;;;;;64.80;33.30;;;;;;;8.19;100.00;99757.55;110285;1238;64056;-70
2023/04/12 06:23:57;;;;;;;64.40;32.70;;;;;;;8.35;100.00;99754.71;110254;1234;61284;-72
2023/04/12 06:26:26;;;;;;;65.30;32.30;;;;;;;8.29;100.00;99753.95;110329;1235;64276;-72
2023/04/12 06:29:06;;;;;;;61.10;29.30;;;;;;;8.30;100.00;99747.29;110146;1235;71458;-71
2023/04/12 06:31:35;;;;;;;54.30;27.80;;;;;;;8.39;100.00;99751.26;110051;1235;69999;-71
2023/04/12 06:34:04;;;;;;;65.60;29.20;;;;;;;8.44;100.00;99752.65;110103;1234;63933;-72
2023/04/12 06:36:34;;;;;;;53.30;29.90;;;;;;;8.53;100.00;99751.45;110172;1235;61109;-72
2023/04/12 06:39:03;;;;;;;64.60;30.60;;;;;;;8.56;100.00;99754.48;110268;1234;58582;-72
2023/04/12 06:41:31;;;;;;;60.10;29.40;;;;;;;8.63;100.00;99752.88;110315;1235;73670;-71
2023/04/12 06:44:01;;;;;;;58.00;30.00;;;;;;;8.63;100.00;99753.73;110340;1235;61481;-71
2023/04/12 06:46:31;;;;;;;51.90;29.60;;;;;;;8.63;100.00;99756.02;110438;1235;70581;-71
2023/04/12 06:49:00;;;;;;;61.70;30.80;;;;;;;8.57;100.00;99758.73;110139;1235;74277;-72
2023/04/12 06:51:30;;;;;;;60.80;29.80;;;;;;;8.65;100.00;99759.13;110158;1237;62464;-72
2023/04/12 06:53:58;;;;;;;57.80;28.50;;;;;;;8.68;100.00;99764.10;110285;1234;61513;-72
2023/04/12 06:56:27;;;;;;;53.30;27.40;;;;;;;8.65;100.00;99768.35;110178;1235;63964;-72
2023/04/12 06:58:57;;;;;;;58.60;31.20;;;;;;;8.64;100.00;99769.32;110299;1236;61483;-72
2023/04/12 07:01:26;;;;;;;59.10;29.90;;;;;;;8.62;100.00;99767.51;110357;1235;70980;-72
2023/04/12 07:03:55;;;;;;;61.30;30.00;;;;;;;8.55;100.00;99764.48;110196;1235;63733;-71
2023/04/12 07:06:24;;;;;;;56.40;27.10;;;;;;;8.82;100.00;99758.83;110465;1236;58356;-72
2023/04/12 07:08:53;;;;;;;58.40;26.40;;;;;;;8.82;100.00;99761.96;110505;1236;59388;-72
2023/04/12 07:11:23;;;;;;;60.90;28.60;;;;;;;8.97;100.00;99765.48;110527;1235;74801;-72
2023/04/12 07:13:52;;;;;;;53.60;25.90;;;;;;;9.04;100.00;99761.96;110511;1235;72569;-73
2023/04/12 07:16:20;;;;;;;47.50;25.70;;;;;;;9.03;100.00;99766.02;110524;1235;70968;-72
2023/04/12 07:18:49;;;;;;;46.30;25.10;;;;;;;8.98;100.00;99765.74;110509;1235;63755;-72
2023/04/12 07:21:18;;;;;;;57.80;27.70;;;;;;;8.91;100.00;99766.95;110377;1237;57962;-72
2023/04/12 07:23:50;;;;;;;56.10;28.60;;;;;;;8.96;100.00;99767.27;110529;1235;58182;-72
2023/04/12 07:26:18;;;;;;;54.60;27.00;;;;;;;8.94;100.00;99767.91;110494;1235;74353;-71
2023/04/12 07:28:47;;;;;;;56.90;27.70;;;;;;;9.00;100.00;99764.20;110383;1239;62182;-71
2023/04/12 07:31:16;;;;;;;55.50;28.50;;;;;;;8.97;100.00;99761.59;110368;1238;59952;-71
2023/04/12 07:33:45;;;;;;;54.40;27.60;;;;;;;9.07;100.00;99754.43;110358;1235;62368;-71
2023/04/12 07:36:20;;;;;;;43.60;24.60;;;;;;;9.09;100.00;99753.75;110396;1238;57883;-71
2023/04/12 07:38:53;;;;;;;48.10;24.80;;;;;;;9.03;100.00;99750.19;110379;1235;61191;-70
2023/04/12 07:41:23;;;;;;;45.20;25.20;;;;;;;9.07;100.00;99749.20;110532;1236;63410;-70
2023/04/12 07:43:51;;;;;;;40.00;24.00;;;;;;;9.13;100.00;99750.77;110453;1235;71277;-71
2023/04/12 07:46:20;;;;;;;46.90;25.00;;;;;;;9.06;100.00;99753.81;110376;1235;60320;-71
2023/04/12 07:48:50;;;;;;;42.20;24.80;;;;;;;8.93;100.00;99749.46;110365;1236;63233;-70
2023/04/12 07:51:19;;;;;;;39.50;23.40;;;;;;;8.96;100.00;99750.80;110362;1235;58409;-69
2023/04/12 07:53:48;;;;;;;42.90;24.80;;;;;;;8.92;100.00;99752.63;110405;1235;60736;-74
2023/04/12 07:56:16;;;;;;;45.50;22.10;;;;;;;8.82;100.00;99749.81;110260;1235;74265;-69
2023/04/12 07:58:46;;;;;;;45.00;24.70;;;;;;;8.88;100.00;99750.20;110428;1234;61337;-68
2023/04/12 08:01:15;;;;;;;51.50;25.90;;;;;;;8.98;100.00;99750.10;110409;1235;59077;-73
2023/04/12 08:03:45;;;;;;;50.50;26.00;;;;;;;9.02;100.00;99748.91;110445;1235;63292;-73
2023/04/12 08:06:14;;;;;;;50.80;27.70;;;;;;;9.13;100.00;99750.06;110254;1239;58361;-75
2023/04/12 08:08:43;;;;;;;53.50;27.40;;;;;;;9.21;100.00;99749.95;110257;1238;57773;-75
2023/04/12 08:11:12;;;;;;;51.40;27.90;;;;;;;9.28;100.00;99753.00;110386;1235;63741;-72
2023/04/12 08:13:41;;;;;;;42.60;23.70;;;;;;;9.49;100.00;99756.72;110101;1235;72232;-77
2023/04/12 08:16:11;;;;;;;40.60;23.40;;;;;;;9.65;100.00;99750.62;110279;1235;69975;-74
2023/04/12 08:18:40;;;;;;;41.90;23.20;;;;;;;9.72;100.00;99748.98;110363;1235;63701;-78
2023/04/12 08:21:09;;;;;;;40.50;22.50;;;;;;;9.71;100.00;99754.88;110247;1235;62245;-79
2023/04/12 08:23:38;;;;;;;37.10;20.70;;;;;;;9.76;100.00;99756.52;110134;1235;61197;-79
2023/04/12 08:26:07;;;;;;;35.50;20.80;;;;;;;9.66;100.00;99750.06;110294;1235;73986;-78
2023/04/12 08:28:35;;;;;;;39.50;22.70;;;;;;;9.47;100.00;99751.30;110424;1235;71659;-77
2023/04/12 08:31:07;;;;;;;43.70;24.10;;;;;;;9.57;100.00;99753.77;110393;1233;71191;-77
2023/04/12 08:33:36;;;;;;;35.10;21.80;;;;;;;9.55;100.00;99748.50;110495;1235;62787;-77
2023/04/12 08:36:06;;;;;;;36.70;21.50;;;;;;;9.56;100.00;99745.67;110439;1238;57728;-79
2023/04/12 08:38:39;;;;;;;37.20;22.10;;;;;;;9.47;100.00;99749.43;110590;1235;62426;-75
2023/04/12 08:41:14;;;;;;;42.10;22.40;;;;;;;9.74;100.00;99749.23;110262;1235;74783;-77
2023/04/12 08:43:47;;;;;;;36.90;22.10;;;;;;;9.72;100.00;99754.73;110541;1236;62046;-77
2023/04/12 08:46:16;;;;;;;36.10;21.00;;;;;;;9.48;100.00;99753.98;110452;1238;60049;-78
2023/04/12 08:48:47;;;;;;;38.60;21.90;;;;;;;9.56;100.00;99751.02;110586;1236;62681;-78
2023/04/12 08:51:18;;;;;;;40.00;22.90;;;;;;;9.47;100.00;99757.55;110412;1237;57830;-78
2023/04/12 08:53:47;;;;;;;35.80;21.10;;;;;;;9.60;100.00;99765.83;110313;1238;58336;-79
2023/04/12 08:56:17;;;;;;;38.60;21.50;;;;;;;9.67;100.00;99768.91;110275;1239;63005;-78
2023/04/12 08:58:49;;;;;;;38.10;21.50;;;;;;;9.70;100.00;99765.56;110397;1237;60845;-77
2023/04/12 09:01:20;;;;;;;36.20;20.40;;;;;;;9.69;100.00;99764.52;110296;1235;70375;-78
2023/04/12 09:03:49;;;;;;;35.10;21.00;;;;;;;9.40;100.00;99766.61;110270;1235;73406;-79
2023/04/12 09:06:18;;;;;;;39.40;23.00;;;;;;;9.64;100.00;99760.80;110519;1236;58252;-80
2023/04/12 09:08:55;;;;;;;40.30;22.40;;;;;;;9.58;100.00;99762.52;110277;1235;58200;-78
2023/04/12 09:11:26;;;;;;;41.40;23.40;;;;;;;9.74;100.00;99760.66;109976;1234;377352;-77
2023/04/12 09:13:58;;;;;;;36.20;21.60;;;;;;;9.81;100.00;99760.27;110167;1235;71950;-77
2023/04/12 09:16:40;;;;;;;37.60;22.60;;;;;;;9.76;100.00;99760.86;110129;1234;70464;-76
2023/04/12 09:19:09;;;;;;;34.10;22.70;;;;;;;9.72;100.00;99759.26;110001;1235;73543;-77
2023/04/12 09:21:53;;;;;;;30.00;20.80;;;;;;;9.86;100.00;99759.00;110197;1236;58367;-77
2023/04/12 09:24:24;;;;;;;36.00;20.90;;;;;;;9.58;100.00;99772.28;110232;1235;61178;-78
2023/04/12 09:27:04;;;;;;;34.50;22.40;;;;;;;9.68;100.00;99782.73;110084;1239;64774;-77
2023/04/12 09:29:33;;;;;;;36.40;21.70;;;;;;;9.83;100.00;99785.67;110011;1241;62703;-78
2023/04/12 09:32:06;;;;;;;33.90;21.70;;;;;;;9.90;100.00;99778.14;110350;1236;60086;-81
2023/04/12 09:34:35;;;;;;;31.90;21.10;;;;;;;9.97;100.00;99775.27;110227;1235;73818;-77
2023/04/12 09:37:15;;;;;;;37.80;22.40;;;;;;;9.90;100.00;99774.66;110201;1238;57793;-78
2023/04/12 09:39:45;;;;;;;30.70;20.20;;;;;;;10.13;100.00;99771.84;110162;1239;57816;-78
2023/04/12 09:42:14;;;;;;;34.60;21.60;;;;;;;10.12;100.00;99767.04;110177;1235;74126;-77
2023/04/12 09:45:30;;;;;;;31.40;19.20;;;;;;;10.25;100.00;99767.51;109963;1238;71800;-78
2023/04/12 09:47:59;;;;;;;37.80;23.60;;;;;;;10.34;100.00;99774.45;110080;1235;71243;-79
2023/04/12 09:50:32;;;;;;;31.30;19.90;;;;;;;10.39;100.00;99773.99;110200;1238;73069;-79
2023/04/12 09:53:02;;;;;;;30.90;19.10;;;;;;;10.33;100.00;99774.11;110202;1236;62639;-79
2023/04/12 09:55:31;;;;;;;32.50;19.70;;;;;;;10.37;100.00;99768.87;109767;1235;58302;-77
2023/04/12 09:58:03;;;;;;;34.90;19.70;;;;;;;10.44;100.00;99766.06;110076;1238;63267;-79
2023/04/12 10:00:33;;;;;;;36.10;22.30;;;;;;;10.54;100.00;99765.14;110004;1238;61916;-76
2023/04/12 10:03:03;;;;;;;35.70;21.30;;;;;;;10.50;100.00;99765.31;109818;1235;71144;-77
2023/04/12 10:05:33;;;;;;;28.50;17.80;;;;;;;10.57;100.00;99761.42;110118;1234;73332;-78
2023/04/12 10:08:04;;;;;;;29.90;18.10;;;;;;;10.70;100.00;99759.59;109970;1235;62657;-79
2023/04/12 10:10:33;;;;;;;32.90;18.10;;;;;;;10.68;100.00;99751.09;110008;1235;60421;-79
2023/04/12 10:13:05;;;;;;;30.50;18.70;;;;;;;10.72;100.00;99754.00;110022;1235;74235;-78
2023/04/12 10:15:35;;;;;;;30.70;18.20;;;;;;;10.52;100.00;99753.14;109965;1238;61999;-79
2023/04/12 10:18:10;;;;;;;26.00;16.40;;;;;;;10.72;100.00;99755.96;110042;1235;69603;-79
2023/04/12 10:20:42;;;;;;;25.70;16.10;;;;;;;10.68;100.00;99762.54;110021;1235;74140;-78
2023/04/12 10:23:15;;;;;;;28.70;17.20;;;;;;;10.52;100.00;99764.63;109964;1235;58187;-79
2023/04/12 10:25:47;;;;;;;23.20;15.00;;;;;;;10.45;100.00;99767.68;110104;1235;58184;-74
2023/04/12 10:28:20;;;;;;;22.70;14.80;;;;;;;10.38;100.00;99766.70;110210;1237;74356;-76
2023/04/12 10:30:50;;;;;;;24.60;15.60;;;;;;;10.49;100.00;99765.80;110107;1235;61393;-75
2023/04/12 10:33:29;;;;;;;23.10;15.10;;;;;;;10.56;100.00;99760.49;110155;1234;69680;-76
2023/04/12 10:36:07;;;;;;;24.30;15.20;;;;;;;10.53;100.00;99768.05;110245;1235;71780;-76
2023/04/12 10:38:46;;;;;;;29.00;17.20;;;;;;;10.60;100.00;99767.45;110196;1235;63418;-76
2023/04/12 10:41:19;;;;;;;29.00;16.70;;;;;;;10.59;100.00;99769.60;110040;1235;60581;-75
2023/04/12 10:43:50;;;;;;;24.10;14.60;;;;;;;10.67;100.00;99770.14;110184;1235;74294;-76
2023/04/12 10:46:39;;;;;;;22.60;14.50;;;;;;;10.62;100.00;99768.97;110248;1235;61861;-72
2023/04/12 10:49:13;;;;;;;29.90;17.20;;;;;;;10.61;100.00;99768.01;110340;1235;60260;-74
2023/04/12 10:52:04;;;;;;;23.90;14.90;;;;;;;10.65;100.00;99769.64;110213;1237;63279;-74
2023/04/12 10:54:34;;;;;;;25.50;14.30;;;;;;;10.61;100.00;99768.89;110266;1235;62043;-71
2023/04/12 10:57:04;;;;;;;29.70;16.10;;;;;;;10.63;100.00;99773.08;109901;1235;57692;-71
2023/04/12 10:59:53;;;;;;;26.30;15.90;;;;;;;10.58;100.00;99771.66;109975;1234;63840;-72
2023/04/12 11:02:22;;;;;;;29.50;16.60;;;;;;;10.38;100.00;99771.44;110364;1235;72155;-72
2023/04/12 11:05:10;;;;;;;24.30;15.10;;;;;;;10.41;100.00;99776.94;110226;1235;70410;-72
2023/04/12 11:08:39;;;;;;;28.30;17.00;;;;;;;10.49;100.00;99776.95;110275;1235;71762;-72
2023/04/12 11:11:26;;;;;;;29.40;17.30;;;;;;;10.43;100.00;99780.77;110210;1235;63383;-72
2023/04/12 11:13:56;;;;;;;29.50;18.00;;;;;;;10.34;100.00;99780.51;110167;1235;57727;-71
2023/04/12 11:16:24;;;;;;;27.50;15.50;;;;;;;10.47;100.00;99784.24;110193;1235;74295;-71
2023/04/12 11:18:53;;;;;;;28.70;16.50;;;;;;;10.52;100.00;99786.25;110330;1235;62408;-72
2023/04/12 11:21:24;;;;;;;31.50;17.90;;;;;;;10.33;100.00;99784.57;110348;1235;70412;-72
2023/04/12 11:23:55;;;;;;;22.60;15.50;;;;;;;10.43;100.00;99789.48;110345;1235;74169;-71
2023/04/12 11:26:24;;;;;;;26.40;16.00;;;;;;;10.50;100.00;99791.63;110345;1235;63222;-71
2023/04/12 11:28:54;;;;;;;26.20;15.80;;;;;;;10.38;100.00;99791.66;110214;1235;58294;-71
2023/04/12 11:31:24;;;;;;;23.50;15.30;;;;;;;10.44;100.00;99790.77;110210;1235;73819;-71
2023/04/12 11:33:52;;;;;;;24.90;15.10;;;;;;;10.47;100.00;99793.42;110204;1236;72442;-71